Terminal Aerodrome Forecast
Issued by NWS

Home | Current Version | Previous Version | Text Only | Print | Product List | Glossary On
Versions: 1 2 3 4 5 6 7 8 9 10 11 12 13 14 15 16 17
000
FTUS41 KPBZ 242300
TAFLBE
TAF
KLBE 242329Z 2500/2524 25006KT P6SM SCT150
     FM250700 23005KT P6SM BKN040
     FM251900 24012G20KT P6SM BKN035
      AMD NOT SKED 2502/2511=

USA.gov is the U.S. government's official web portal to all federal, state and local government web resources and services.